sensor_id;sensor_type;location;lat;lon;timestamp;pressure;altitude;pressure_sealevel;temperature;humidity
25350;BME280;13302;48.796;11.978;2023-04-25T00:02:10;96169.47;;;11.35;32.30
25350;BME280;13302;48.796;11.978;2023-04-25T00:04:57;96175.03;;;11.35;32.27
25350;BME280;13302;48.796;11.978;2023-04-25T00:07:45;96173.78;;;11.32;32.42
25350;BME280;13302;48.796;11.978;2023-04-25T00:10:32;96178.09;;;11.30;32.19
25350;BME280;13302;48.796;11.978;2023-04-25T00:13:19;96174.13;;;11.27;32.04
25350;BME280;13302;48.796;11.978;2023-04-25T00:16:07;96167.34;;;11.25;32.37
25350;BME280;13302;48.796;11.978;2023-04-25T00:18:54;96177.19;;;11.22;32.32
25350;BME280;13302;48.796;11.978;2023-04-25T00:21:41;96163.72;;;11.21;32.20
25350;BME280;13302;48.796;11.978;2023-04-25T00:24:28;96165.69;;;11.20;32.42
25350;BME280;13302;48.796;11.978;2023-04-25T00:27:16;96165.31;;;11.22;32.06
25350;BME280;13302;48.796;11.978;2023-04-25T00:30:03;96168.09;;;11.22;32.42
25350;BME280;13302;48.796;11.978;2023-04-25T00:32:50;96161.41;;;11.23;32.48
25350;BME280;13302;48.796;11.978;2023-04-25T00:35:37;96156.66;;;11.23;32.34
25350;BME280;13302;48.796;11.978;2023-04-25T00:38:25;96163.38;;;11.22;32.21
25350;BME280;13302;48.796;11.978;2023-04-25T00:41:12;96158.19;;;11.21;32.30
25350;BME280;13302;48.796;11.978;2023-04-25T00:43:59;96160.16;;;11.20;32.34
25350;BME280;13302;48.796;11.978;2023-04-25T00:46:48;96157.78;;;11.19;32.29
25350;BME280;13302;48.796;11.978;2023-04-25T00:49:36;96149.84;;;11.17;32.36
25350;BME280;13302;48.796;11.978;2023-04-25T00:52:23;96157.34;;;11.17;32.28
25350;BME280;13302;48.796;11.978;2023-04-25T00:55:11;96153.75;;;11.16;32.42
25350;BME280;13302;48.796;11.978;2023-04-25T00:57:59;96156.53;;;11.16;32.50
25350;BME280;13302;48.796;11.978;2023-04-25T01:00:47;96152.19;;;11.15;32.66
25350;BME280;13302;48.796;11.978;2023-04-25T01:03:37;96150.94;;;11.13;32.70
25350;BME280;13302;48.796;11.978;2023-04-25T01:06:28;96156.88;;;11.11;32.66
25350;BME280;13302;48.796;11.978;2023-04-25T01:09:15;96158.84;;;11.11;32.59
25350;BME280;13302;48.796;11.978;2023-04-25T01:12:02;96154.78;;;11.04;32.47
25350;BME280;13302;48.796;11.978;2023-04-25T01:14:50;96157.94;;;11.03;32.62
25350;BME280;13302;48.796;11.978;2023-04-25T01:17:37;96161.41;;;11.00;32.47
25350;BME280;13302;48.796;11.978;2023-04-25T01:20:24;96154.69;;;10.97;32.41
25350;BME280;13302;48.796;11.978;2023-04-25T01:23:13;96156.22;;;10.95;32.59
25350;BME280;13302;48.796;11.978;2023-04-25T01:26:00;96156.94;;;10.92;32.41
25350;BME280;13302;48.796;11.978;2023-04-25T01:28:48;96160.47;;;10.89;32.38
25350;BME280;13302;48.796;11.978;2023-04-25T01:31:36;96166.34;;;10.87;32.22
25350;BME280;13302;48.796;11.978;2023-04-25T01:34:25;96161.56;;;10.84;32.44
25350;BME280;13302;48.796;11.978;2023-04-25T01:37:12;96165.88;;;10.82;32.60
25350;BME280;13302;48.796;11.978;2023-04-25T01:39:59;96157.94;;;10.80;32.63
25350;BME280;13302;48.796;11.978;2023-04-25T01:42:46;96161.06;;;10.79;32.63
25350;BME280;13302;48.796;11.978;2023-04-25T01:45:34;96155.53;;;10.79;32.78
25350;BME280;13302;48.796;11.978;2023-04-25T01:48:23;96158.28;;;10.79;32.58
25350;BME280;13302;48.796;11.978;2023-04-25T01:51:10;96160.66;;;10.77;32.73
25350;BME280;13302;48.796;11.978;2023-04-25T01:53:59;96152.72;;;10.75;32.77
25350;BME280;13302;48.796;11.978;2023-04-25T01:56:50;96159.44;;;10.74;32.59
25350;BME280;13302;48.796;11.978;2023-04-25T01:59:39;96157.44;;;10.75;32.54
25350;BME280;13302;48.796;11.978;2023-04-25T02:02:59;96152.31;;;10.73;32.66
25350;BME280;13302;48.796;11.978;2023-04-25T02:05:50;96145.22;;;10.76;32.78
25350;BME280;13302;48.796;11.978;2023-04-25T02:08:38;96138.16;;;10.78;32.69
25350;BME280;13302;48.796;11.978;2023-04-25T02:11:25;96140.53;;;10.80;32.94
25350;BME280;13302;48.796;11.978;2023-04-25T02:14:31;96145.72;;;10.81;32.67
25350;BME280;13302;48.796;11.978;2023-04-25T02:17:40;96144.91;;;10.81;32.83
25350;BME280;13302;48.796;11.978;2023-04-25T02:20:29;96142.94;;;10.81;32.61
25350;BME280;13302;48.796;11.978;2023-04-25T02:23:17;96142.16;;;10.81;32.90
25350;BME280;13302;48.796;11.978;2023-04-25T02:26:05;96144.56;;;10.82;32.83
25350;BME280;13302;48.796;11.978;2023-04-25T02:28:53;96143.38;;;10.83;32.70
25350;BME280;13302;48.796;11.978;2023-04-25T02:31:39;96133.91;;;10.84;32.91
25350;BME280;13302;48.796;11.978;2023-04-25T02:34:27;96141.03;;;10.85;32.62
25350;BME280;13302;48.796;11.978;2023-04-25T02:37:14;96134.34;;;10.86;32.62
25350;BME280;13302;48.796;11.978;2023-04-25T02:40:01;96138.69;;;10.87;32.67
25350;BME280;13302;48.796;11.978;2023-04-25T02:42:51;96138.69;;;10.87;32.75
25350;BME280;13302;48.796;11.978;2023-04-25T02:45:38;96128.81;;;10.86;32.74
25350;BME280;13302;48.796;11.978;2023-04-25T02:48:25;96128.03;;;10.86;32.92
25350;BME280;13302;48.796;11.978;2023-04-25T02:51:12;96124.81;;;10.84;32.89
25350;BME280;13302;48.796;11.978;2023-04-25T02:53:59;96121.63;;;10.82;32.69
25350;BME280;13302;48.796;11.978;2023-04-25T02:56:46;96126.00;;;10.83;32.66
25350;BME280;13302;48.796;11.978;2023-04-25T02:59:39;96112.94;;;10.83;32.80
25350;BME280;13302;48.796;11.978;2023-04-25T03:02:26;96112.94;;;10.83;32.93
25350;BME280;13302;48.796;11.978;2023-04-25T03:05:13;96113.75;;;10.84;32.83
25350;BME280;13302;48.796;11.978;2023-04-25T03:08:00;96106.66;;;10.83;32.96
25350;BME280;13302;48.796;11.978;2023-04-25T03:10:47;96109.78;;;10.81;33.25
25350;BME280;13302;48.796;11.978;2023-04-25T03:13:35;96110.56;;;10.82;33.08
25350;BME280;13302;48.796;11.978;2023-04-25T03:16:23;96114.50;;;10.81;33.35
25350;BME280;13302;48.796;11.978;2023-04-25T03:19:10;96112.91;;;10.80;33.40
25350;BME280;13302;48.796;11.978;2023-04-25T03:21:57;96107.75;;;10.78;33.21
25350;BME280;13302;48.796;11.978;2023-04-25T03:24:44;96102.59;;;10.77;33.17
25350;BME280;13302;48.796;11.978;2023-04-25T03:27:33;96111.19;;;10.72;33.30
25350;BME280;13302;48.796;11.978;2023-04-25T03:30:20;96097.38;;;10.72;33.25
25350;BME280;13302;48.796;11.978;2023-04-25T03:33:07;96101.28;;;10.71;33.60
25350;BME280;13302;48.796;11.978;2023-04-25T03:35:55;96107.63;;;10.71;33.23
25350;BME280;13302;48.796;11.978;2023-04-25T03:38:42;96106.78;;;10.67;33.63
25350;BME280;13302;48.796;11.978;2023-04-25T03:41:30;96096.47;;;10.64;33.39
25350;BME280;13302;48.796;11.978;2023-04-25T03:44:23;96097.25;;;10.65;33.67
25350;BME280;13302;48.796;11.978;2023-04-25T03:47:11;96092.09;;;10.63;33.65
25350;BME280;13302;48.796;11.978;2023-04-25T03:49:58;96092.47;;;10.62;33.55
25350;BME280;13302;48.796;11.978;2023-04-25T03:52:49;96088.13;;;10.61;33.64
25350;BME280;13302;48.796;11.978;2023-04-25T03:55:36;96096.03;;;10.62;33.54
25350;BME280;13302;48.796;11.978;2023-04-25T03:58:23;96084.59;;;10.64;33.41
25350;BME280;13302;48.796;11.978;2023-04-25T04:01:11;96085.00;;;10.62;33.49
25350;BME280;13302;48.796;11.978;2023-04-25T04:03:59;96084.19;;;10.62;33.59
25350;BME280;13302;48.796;11.978;2023-04-25T04:06:48;96082.59;;;10.61;33.80
25350;BME280;13302;48.796;11.978;2023-04-25T04:09:40;96089.72;;;10.62;33.68
25350;BME280;13302;48.796;11.978;2023-04-25T04:12:33;96094.06;;;10.63;33.49
25350;BME280;13302;48.796;11.978;2023-04-25T04:15:21;96095.25;;;10.62;33.50
25350;BME280;13302;48.796;11.978;2023-04-25T04:18:09;96111.44;;;10.63;33.50
25350;BME280;13302;48.796;11.978;2023-04-25T04:20:56;96116.97;;;10.63;33.86
25350;BME280;13302;48.796;11.978;2023-04-25T04:23:47;96128.03;;;10.63;34.09
25350;BME280;13302;48.796;11.978;2023-04-25T04:26:35;96124.84;;;10.61;34.14
25350;BME280;13302;48.796;11.978;2023-04-25T04:29:39;96119.25;;;10.57;34.21
25350;BME280;13302;48.796;11.978;2023-04-25T04:32:35;96114.06;;;10.56;34.24
25350;BME280;13302;48.796;11.978;2023-04-25T04:35:24;96113.19;;;10.52;34.75
25350;BME280;13302;48.796;11.978;2023-04-25T04:38:11;96112.69;;;10.46;34.85
25350;BME280;13302;48.796;11.978;2023-04-25T04:40:59;96109.88;;;10.43;35.23
25350;BME280;13302;48.796;11.978;2023-04-25T04:44:05;96112.59;;;10.39;35.19
25350;BME280;13302;48.796;11.978;2023-04-25T04:47:02;96097.91;;;10.35;35.54
25350;BME280;13302;48.796;11.978;2023-04-25T04:50:13;96113.56;;;10.28;35.57
25350;BME280;13302;48.796;11.978;2023-04-25T04:53:20;96115.88;;;10.26;35.58
25350;BME280;13302;48.796;11.978;2023-04-25T04:56:26;96107.91;;;10.21;35.81
25350;BME280;13302;48.796;11.978;2023-04-25T04:59:53;96102.34;;;10.17;36.02
25350;BME280;13302;48.796;11.978;2023-04-25T05:03:16;96100.00;;;10.19;35.83
25350;BME280;13302;48.796;11.978;2023-04-25T05:06:36;96085.38;;;10.19;35.83
25350;BME280;13302;48.796;11.978;2023-04-25T05:09:58;96089.75;;;10.20;36.16
25350;BME280;13302;48.796;11.978;2023-04-25T05:13:02;96090.53;;;10.20;36.04
25350;BME280;13302;48.796;11.978;2023-04-25T05:16:21;96099.63;;;10.21;36.18
25350;BME280;13302;48.796;11.978;2023-04-25T05:19:15;96092.91;;;10.22;36.26
25350;BME280;13302;48.796;11.978;2023-04-25T05:22:09;96099.25;;;10.22;36.15
25350;BME280;13302;48.796;11.978;2023-04-25T05:25:15;96098.44;;;10.22;36.25
25350;BME280;13302;48.796;11.978;2023-04-25T05:28:25;96096.94;;;10.24;36.33
25350;BME280;13302;48.796;11.978;2023-04-25T05:31:38;96092.63;;;10.27;36.21
25350;BME280;13302;48.796;11.978;2023-04-25T05:34:31;96090.31;;;10.29;36.29
25350;BME280;13302;48.796;11.978;2023-04-25T05:37:21;96095.44;;;10.30;36.65
25350;BME280;13302;48.796;11.978;2023-04-25T05:40:17;96093.13;;;10.32;36.32
25350;BME280;13302;48.796;11.978;2023-04-25T05:43:11;96092.38;;;10.35;36.78
25350;BME280;13302;48.796;11.978;2023-04-25T05:46:07;96085.31;;;10.38;36.56
25350;BME280;13302;48.796;11.978;2023-04-25T05:49:13;96087.78;;;10.43;36.71
25350;BME280;13302;48.796;11.978;2023-04-25T05:52:18;96076.78;;;10.46;36.73
25350;BME280;13302;48.796;11.978;2023-04-25T05:55:16;96089.13;;;10.52;36.62
25350;BME280;13302;48.796;11.978;2023-04-25T05:58:05;96083.34;;;10.57;36.93
25350;BME280;13302;48.796;11.978;2023-04-25T06:00:52;96094.06;;;10.63;36.86
25350;BME280;13302;48.796;11.978;2023-04-25T06:03:39;96090.56;;;10.66;36.79
25350;BME280;13302;48.796;11.978;2023-04-25T06:06:30;96096.16;;;10.69;36.84
25350;BME280;13302;48.796;11.978;2023-04-25T06:09:18;96096.56;;;10.71;36.55
25350;BME280;13302;48.796;11.978;2023-04-25T06:12:06;96094.31;;;10.77;36.27
25350;BME280;13302;48.796;11.978;2023-04-25T06:14:53;96093.09;;;10.74;36.39
25350;BME280;13302;48.796;11.978;2023-04-25T06:17:41;96088.78;;;10.77;36.84
25350;BME280;13302;48.796;11.978;2023-04-25T06:20:28;96097.47;;;10.79;36.72
25350;BME280;13302;48.796;11.978;2023-04-25T06:23:18;96095.16;;;10.81;37.01
25350;BME280;13302;48.796;11.978;2023-04-25T06:26:12;96097.16;;;10.84;36.72
25350;BME280;13302;48.796;11.978;2023-04-25T06:29:02;96094.41;;;10.84;36.43
25350;BME280;13302;48.796;11.978;2023-04-25T06:31:49;96101.53;;;10.85;36.47
25350;BME280;13302;48.796;11.978;2023-04-25T06:34:37;96094.41;;;10.84;36.39
25350;BME280;13302;48.796;11.978;2023-04-25T06:37:25;96092.03;;;10.82;36.53
25350;BME280;13302;48.796;11.978;2023-04-25T06:40:12;96099.22;;;10.87;36.49
25350;BME280;13302;48.796;11.978;2023-04-25T06:42:59;96103.53;;;10.88;36.87
25350;BME280;13302;48.796;11.978;2023-04-25T06:46:08;96095.69;;;10.90;36.84
25350;BME280;13302;48.796;11.978;2023-04-25T06:49:01;96095.75;;;10.93;36.69
25350;BME280;13302;48.796;11.978;2023-04-25T06:51:48;96090.69;;;10.99;36.97
25350;BME280;13302;48.796;11.978;2023-04-25T06:54:36;96096.28;;;11.02;36.95
25350;BME280;13302;48.796;11.978;2023-04-25T06:57:35;96104.69;;;11.10;36.42
25350;BME280;13302;48.796;11.978;2023-04-25T07:00:42;96094.91;;;11.16;36.41
25350;BME280;13302;48.796;11.978;2023-04-25T07:03:29;96104.81;;;11.20;36.24
25350;BME280;13302;48.796;11.978;2023-04-25T07:06:21;96108.44;;;11.24;36.38
25350;BME280;13302;48.796;11.978;2023-04-25T07:09:09;96099.47;;;11.31;36.03
25350;BME280;13302;48.796;11.978;2023-04-25T07:12:02;96097.09;;;11.33;36.39
25350;BME280;13302;48.796;11.978;2023-04-25T07:14:49;96092.41;;;11.37;35.89
25350;BME280;13302;48.796;11.978;2023-04-25T07:17:37;96100.75;;;11.40;36.13
25350;BME280;13302;48.796;11.978;2023-04-25T07:20:24;96092.13;;;11.45;35.76
25350;BME280;13302;48.796;11.978;2023-04-25T07:23:12;96094.16;;;11.48;35.76
25350;BME280;13302;48.796;11.978;2023-04-25T07:25:59;96094.28;;;11.56;36.04
25350;BME280;13302;48.796;11.978;2023-04-25T07:28:48;96097.09;;;11.59;36.24
25350;BME280;13302;48.796;11.978;2023-04-25T07:31:39;96092.06;;;11.68;35.80
25350;BME280;13302;48.796;11.978;2023-04-25T07:34:26;96091.31;;;11.71;35.73
25350;BME280;13302;48.796;11.978;2023-04-25T07:37:14;96096.88;;;11.75;35.71
25350;BME280;13302;48.796;11.978;2023-04-25T07:40:17;96100.50;;;11.79;36.05
25350;BME280;13302;48.796;11.978;2023-04-25T07:43:12;96100.16;;;11.84;36.17
25350;BME280;13302;48.796;11.978;2023-04-25T07:46:12;96091.53;;;11.89;35.76
25350;BME280;13302;48.796;11.978;2023-04-25T07:49:00;96093.16;;;11.93;35.59
25350;BME280;13302;48.796;11.978;2023-04-25T07:51:48;96106.63;;;11.95;35.26
25350;BME280;13302;48.796;11.978;2023-04-25T07:54:38;96097.50;;;11.94;35.18
25350;BME280;13302;48.796;11.978;2023-04-25T07:57:34;96093.16;;;11.93;35.44
25350;BME280;13302;48.796;11.978;2023-04-25T08:00:22;96088.00;;;11.92;35.37
25350;BME280;13302;48.796;11.978;2023-04-25T08:03:16;96098.31;;;11.95;35.26
25350;BME280;13302;48.796;11.978;2023-04-25T08:06:04;96090.44;;;11.97;34.90
25350;BME280;13302;48.796;11.978;2023-04-25T08:09:02;96082.94;;;11.98;34.98
25350;BME280;13302;48.796;11.978;2023-04-25T08:11:55;96098.31;;;11.95;35.19
25350;BME280;13302;48.796;11.978;2023-04-25T08:14:47;96094.00;;;11.98;35.23
25350;BME280;13302;48.796;11.978;2023-04-25T08:17:35;96097.63;;;12.02;35.35
25350;BME280;13302;48.796;11.978;2023-04-25T08:20:22;96103.91;;;12.02;35.26
25350;BME280;13302;48.796;11.978;2023-04-25T08:23:12;96096.03;;;12.04;35.21
25350;BME280;13302;48.796;11.978;2023-04-25T08:26:19;96100.44;;;12.09;34.86
25350;BME280;13302;48.796;11.978;2023-04-25T08:29:09;96093.34;;;12.11;35.05
25350;BME280;13302;48.796;11.978;2023-04-25T08:31:59;96087.06;;;12.14;35.02
25350;BME280;13302;48.796;11.978;2023-04-25T08:34:46;96085.53;;;12.20;35.27
25350;BME280;13302;48.796;11.978;2023-04-25T08:37:34;96087.94;;;12.22;34.94
25350;BME280;13302;48.796;11.978;2023-04-25T08:40:29;96093.53;;;12.29;34.79
25350;BME280;13302;48.796;11.978;2023-04-25T08:43:25;96100.72;;;12.33;34.90
25350;BME280;13302;48.796;11.978;2023-04-25T08:46:12;96097.94;;;12.33;34.64
25350;BME280;13302;48.796;11.978;2023-04-25T08:49:25;96102.72;;;12.36;34.54
25350;BME280;13302;48.796;11.978;2023-04-25T08:52:13;96107.09;;;12.37;34.50
25350;BME280;13302;48.796;11.978;2023-04-25T08:55:01;96107.47;;;12.36;34.60
25350;BME280;13302;48.796;11.978;2023-04-25T08:57:50;96111.47;;;12.38;34.37
25350;BME280;13302;48.796;11.978;2023-04-25T09:00:38;96104.72;;;12.39;34.79
25350;BME280;13302;48.796;11.978;2023-04-25T09:03:25;96111.13;;;12.43;34.75
25350;BME280;13302;48.796;11.978;2023-04-25T09:06:12;96114.72;;;12.48;34.63
25350;BME280;13302;48.796;11.978;2023-04-25T09:09:05;96119.13;;;12.52;34.28
25350;BME280;13302;48.796;11.978;2023-04-25T09:11:54;96119.16;;;12.56;34.22
25350;BME280;13302;48.796;11.978;2023-04-25T09:14:41;96115.66;;;12.59;34.02
25350;BME280;13302;48.796;11.978;2023-04-25T09:17:46;96118.81;;;12.61;34.01
25350;BME280;13302;48.796;11.978;2023-04-25T09:20:42;96116.06;;;12.64;34.07
25350;BME280;13302;48.796;11.978;2023-04-25T09:23:46;96117.66;;;12.65;33.99
25350;BME280;13302;48.796;11.978;2023-04-25T09:26:34;96120.47;;;12.69;33.87
25350;BME280;13302;48.796;11.978;2023-04-25T09:29:33;96116.03;;;12.61;33.89
25350;BME280;13302;48.796;11.978;2023-04-25T09:32:24;96126.41;;;12.67;33.81
25350;BME280;13302;48.796;11.978;2023-04-25T09:35:24;96120.47;;;12.69;34.19
25350;BME280;13302;48.796;11.978;2023-04-25T09:38:14;96116.53;;;12.70;33.88
25350;BME280;13302;48.796;11.978;2023-04-25T09:41:25;96122.75;;;12.60;34.02
25350;BME280;13302;48.796;11.978;2023-04-25T09:44:15;96122.84;;;12.67;33.92
25350;BME280;13302;48.796;11.978;2023-04-25T09:47:09;96127.91;;;12.58;34.41
25350;BME280;13302;48.796;11.978;2023-04-25T09:49:56;96127.63;;;12.70;33.97
25350;BME280;13302;48.796;11.978;2023-04-25T09:52:44;96135.16;;;12.73;33.71
25350;BME280;13302;48.796;11.978;2023-04-25T09:55:39;96149.03;;;12.73;33.73
25350;BME280;13302;48.796;11.978;2023-04-25T09:58:29;96156.16;;;12.70;33.63
25350;BME280;13302;48.796;11.978;2023-04-25T10:01:20;96167.25;;;12.70;33.41
25350;BME280;13302;48.796;11.978;2023-04-25T10:04:24;96179.09;;;12.67;33.11
25350;BME280;13302;48.796;11.978;2023-04-25T10:07:26;96168.75;;;12.64;33.43
25350;BME280;13302;48.796;11.978;2023-04-25T10:10:16;96177.44;;;12.59;33.46
25350;BME280;13302;48.796;11.978;2023-04-25T10:13:04;96180.91;;;12.53;33.83
25350;BME280;13302;48.796;11.978;2023-04-25T10:15:52;96181.66;;;12.46;33.76
25350;BME280;13302;48.796;11.978;2023-04-25T10:19:02;96185.50;;;12.38;34.13
25350;BME280;13302;48.796;11.978;2023-04-25T10:24:50;96175.06;;;12.28;34.70
25350;BME280;13302;48.796;11.978;2023-04-25T10:27:38;96182.97;;;12.26;34.95
25350;BME280;13302;48.796;11.978;2023-04-25T10:30:25;96176.59;;;12.22;34.82
25350;BME280;13302;48.796;11.978;2023-04-25T10:33:18;96178.56;;;12.21;35.31
25350;BME280;13302;48.796;11.978;2023-04-25T10:36:20;96181.34;;;12.21;35.39
25350;BME280;13302;48.796;11.978;2023-04-25T10:39:08;96183.72;;;12.23;35.62
25350;BME280;13302;48.796;11.978;2023-04-25T10:41:57;96177.81;;;12.24;35.76
25350;BME280;13302;48.796;11.978;2023-04-25T10:45:07;96167.59;;;12.32;35.59
25350;BME280;13302;48.796;11.978;2023-04-25T10:47:54;96166.91;;;12.38;35.77
25350;BME280;13302;48.796;11.978;2023-04-25T10:50:41;96165.81;;;12.47;35.67
25350;BME280;13302;48.796;11.978;2023-04-25T10:53:31;96170.63;;;12.53;36.37
25350;BME280;13302;48.796;11.978;2023-04-25T10:56:20;96174.72;;;12.66;35.88
25350;BME280;13302;48.796;11.978;2023-04-25T10:59:15;96174.69;;;12.63;35.58
25350;BME280;13302;48.796;11.978;2023-04-25T11:02:11;96179.88;;;12.68;34.98
25350;BME280;13302;48.796;11.978;2023-04-25T11:05:00;96182.31;;;12.73;34.84
25350;BME280;13302;48.796;11.978;2023-04-25T11:07:54;96181.47;;;12.69;34.72
25350;BME280;13302;48.796;11.978;2023-04-25T11:10:54;96183.84;;;12.67;34.88
25350;BME280;13302;48.796;11.978;2023-04-25T11:13:41;96185.03;;;12.66;34.67
25350;BME280;13302;48.796;11.978;2023-04-25T11:16:28;96185.03;;;12.66;34.55
25350;BME280;13302;48.796;11.978;2023-04-25T11:19:15;96184.22;;;12.65;34.83
25350;BME280;13302;48.796;11.978;2023-04-25T11:22:03;96186.97;;;12.62;34.57
25350;BME280;13302;48.796;11.978;2023-04-25T11:24:50;96183.38;;;12.61;34.74
25350;BME280;13302;48.796;11.978;2023-04-25T11:27:48;96185.38;;;12.61;34.84
25350;BME280;13302;48.796;11.978;2023-04-25T11:30:36;96186.09;;;12.54;34.53
25350;BME280;13302;48.796;11.978;2023-04-25T11:33:24;96191.34;;;12.63;34.43
25350;BME280;13302;48.796;11.978;2023-04-25T11:36:12;96184.22;;;12.65;34.20
25350;BME280;13302;48.796;11.978;2023-04-25T11:38:59;96187.06;;;12.72;34.04
25350;BME280;13302;48.796;11.978;2023-04-25T11:41:47;96182.41;;;12.80;33.96
25350;BME280;13302;48.796;11.978;2023-04-25T11:44:34;96177.28;;;12.85;34.21
25350;BME280;13302;48.796;11.978;2023-04-25T11:47:30;96172.97;;;12.88;34.40
25350;BME280;13302;48.796;11.978;2023-04-25T11:50:18;96172.59;;;12.93;34.34
25350;BME280;13302;48.796;11.978;2023-04-25T11:53:05;96181.03;;;13.04;34.25
25350;BME280;13302;48.796;11.978;2023-04-25T11:55:52;96175.16;;;13.12;33.63
25350;BME280;13302;48.796;11.978;2023-04-25T11:59:00;96179.78;;;13.01;33.28
25350;BME280;13302;48.796;11.978;2023-04-25T12:01:49;96185.38;;;13.05;33.15
25350;BME280;13302;48.796;11.978;2023-04-25T12:04:36;96190.88;;;13.01;32.28
25350;BME280;13302;48.796;11.978;2023-04-25T12:07:29;96184.16;;;13.02;32.14
25350;BME280;13302;48.796;11.978;2023-04-25T12:10:18;96187.38;;;13.04;32.08
25350;BME280;13302;48.796;11.978;2023-04-25T12:13:22;96178.25;;;13.04;32.63
25350;BME280;13302;48.796;11.978;2023-04-25T12:16:10;96179.44;;;13.06;32.37
25350;BME280;13302;48.796;11.978;2023-04-25T12:18:57;96186.25;;;13.12;32.44
25350;BME280;13302;48.796;11.978;2023-04-25T12:21:47;96181.50;;;13.13;32.43
25350;BME280;13302;48.796;11.978;2023-04-25T12:24:44;96184.34;;;13.23;32.00
25350;BME280;13302;48.796;11.978;2023-04-25T12:27:32;96185.16;;;13.27;32.01
25350;BME280;13302;48.796;11.978;2023-04-25T12:30:19;96176.50;;;13.29;31.99
25350;BME280;13302;48.796;11.978;2023-04-25T12:33:06;96183.28;;;13.35;31.57
25350;BME280;13302;48.796;11.978;2023-04-25T12:35:54;96188.09;;;13.42;31.31
25350;BME280;13302;48.796;11.978;2023-04-25T12:38:42;96187.31;;;13.45;31.32
25350;BME280;13302;48.796;11.978;2023-04-25T12:41:30;96184.94;;;13.47;31.34
25350;BME280;13302;48.796;11.978;2023-04-25T12:44:17;96188.13;;;13.49;31.59
25350;BME280;13302;48.796;11.978;2023-04-25T12:47:04;96178.25;;;13.55;31.05
25350;BME280;13302;48.796;11.978;2023-04-25T12:49:52;96176.31;;;13.62;30.76
25350;BME280;13302;48.796;11.978;2023-04-25T12:52:39;96197.34;;;13.63;29.95
25350;BME280;13302;48.796;11.978;2023-04-25T12:55:26;96194.19;;;13.65;30.17
25350;BME280;13302;48.796;11.978;2023-04-25T12:58:14;96196.97;;;13.65;29.80
25350;BME280;13302;48.796;11.978;2023-04-25T13:01:02;96195.75;;;13.62;29.31
25350;BME280;13302;48.796;11.978;2023-04-25T13:03:50;96206.03;;;13.58;29.32
25350;BME280;13302;48.796;11.978;2023-04-25T13:06:38;96211.97;;;13.53;29.42
25350;BME280;13302;48.796;11.978;2023-04-25T13:09:25;96209.94;;;13.47;29.35
25350;BME280;13302;48.796;11.978;2023-04-25T13:12:12;96219.00;;;13.40;29.86
25350;BME280;13302;48.796;11.978;2023-04-25T13:14:59;96206.19;;;13.28;29.79
25350;BME280;13302;48.796;11.978;2023-04-25T13:17:46;96220.09;;;13.28;29.81
25350;BME280;13302;48.796;11.978;2023-04-25T13:20:33;96220.34;;;13.13;29.54
25350;BME280;13302;48.796;11.978;2023-04-25T13:23:21;96223.88;;;13.10;29.30
25350;BME280;13302;48.796;11.978;2023-04-25T13:26:08;96226.25;;;13.08;29.35
25350;BME280;13302;48.796;11.978;2023-04-25T13:28:55;96228.59;;;13.06;29.34
25350;BME280;13302;48.796;11.978;2023-04-25T13:31:42;96231.38;;;13.06;29.52
25350;BME280;13302;48.796;11.978;2023-04-25T13:34:29;96231.00;;;13.07;29.32
25350;BME280;13302;48.796;11.978;2023-04-25T13:37:17;96229.81;;;13.08;29.37
25350;BME280;13302;48.796;11.978;2023-04-25T13:40:06;96234.97;;;13.10;29.47
25350;BME280;13302;48.796;11.978;2023-04-25T13:42:56;96244.09;;;13.10;29.32
25350;BME280;13302;48.796;11.978;2023-04-25T13:45:43;96235.38;;;13.08;29.35
25350;BME280;13302;48.796;11.978;2023-04-25T13:48:30;96237.34;;;13.08;29.30
25350;BME280;13302;48.796;11.978;2023-04-25T13:51:17;96238.94;;;13.09;29.43
25350;BME280;13302;48.796;11.978;2023-04-25T13:54:04;96242.91;;;13.08;29.45
25350;BME280;13302;48.796;11.978;2023-04-25T13:56:51;96241.28;;;13.07;29.32
25350;BME280;13302;48.796;11.978;2023-04-25T13:59:42;96250.38;;;13.04;29.55
25350;BME280;13302;48.796;11.978;2023-04-25T14:02:29;96246.38;;;13.01;29.44
25350;BME280;13302;48.796;11.978;2023-04-25T14:05:16;96252.59;;;12.87;29.04
25350;BME280;13302;48.796;11.978;2023-04-25T14:08:08;96256.22;;;12.92;29.22
25350;BME280;13302;48.796;11.978;2023-04-25T14:10:55;96251.84;;;12.91;29.01
25350;BME280;13302;48.796;11.978;2023-04-25T14:13:42;96256.97;;;12.88;28.75
25350;BME280;13302;48.796;11.978;2023-04-25T14:16:29;96257.34;;;12.87;28.81
25350;BME280;13302;48.796;11.978;2023-04-25T14:19:18;96244.28;;;12.87;29.33
25350;BME280;13302;48.796;11.978;2023-04-25T14:22:08;96249.81;;;12.84;29.34
25350;BME280;13302;48.796;11.978;2023-04-25T14:24:55;96240.72;;;12.87;29.48
25350;BME280;13302;48.796;11.978;2023-04-25T14:27:41;96252.22;;;12.89;29.68
25350;BME280;13302;48.796;11.978;2023-04-25T14:30:29;96256.28;;;12.99;29.39
25350;BME280;13302;48.796;11.978;2023-04-25T14:33:16;96254.38;;;13.06;29.52
25350;BME280;13302;48.796;11.978;2023-04-25T14:36:03;96244.50;;;13.09;29.32
25350;BME280;13302;48.796;11.978;2023-04-25T14:38:50;96259.22;;;13.16;29.24
25350;BME280;13302;48.796;11.978;2023-04-25T14:41:37;96263.19;;;13.15;29.46
25350;BME280;13302;48.796;11.978;2023-04-25T14:44:24;96273.13;;;13.20;29.56
25350;BME280;13302;48.796;11.978;2023-04-25T14:47:11;96272.38;;;13.23;29.18
25350;BME280;13302;48.796;11.978;2023-04-25T14:49:58;96272.38;;;13.23;29.21
25350;BME280;13302;48.796;11.978;2023-04-25T14:52:45;96286.63;;;13.21;28.93
25350;BME280;13302;48.796;11.978;2023-04-25T14:55:32;96278.28;;;13.21;28.83
25350;BME280;13302;48.796;11.978;2023-04-25T14:58:19;96278.25;;;13.18;28.46